createdAt,value
2019-02-23T00:00:50.933Z,76.87
2019-02-23T00:01:52.519Z,76.87
2019-02-23T00:02:50.950Z,76.89
2019-02-23T00:03:50.966Z,76.72
2019-02-23T00:04:50.703Z,76.64
2019-02-23T00:05:50.692Z,76.67
2019-02-23T00:06:50.866Z,76.51
2019-02-23T00:07:50.878Z,76.47
2019-02-23T00:08:50.712Z,76.16
2019-02-23T00:09:50.741Z,76.19
2019-02-23T00:10:51.612Z,76.35
2019-02-23T00:11:50.616Z,76.34
2019-02-23T00:12:51.013Z,76.39
2019-02-23T00:13:50.739Z,76.29
2019-02-23T00:14:51.130Z,76.2
2019-02-23T00:15:50.883Z,75.88
2019-02-23T00:16:51.035Z,76.07
2019-02-23T00:17:52.479Z,76.03
2019-02-23T00:18:50.678Z,76.07
2019-02-23T00:19:50.850Z,76.08
2019-02-23T00:20:50.655Z,76.19
2019-02-23T00:21:50.711Z,76.46
2019-02-23T00:22:51.717Z,76.22
2019-02-23T00:23:50.682Z,76.18
2019-02-23T00:24:50.956Z,76.24
2019-02-23T00:25:50.873Z,76.34
2019-02-23T00:26:50.683Z,76.26
2019-02-23T00:27:51.004Z,76.4
2019-02-23T00:28:51.012Z,76.31
2019-02-23T00:29:51.020Z,76.42
2019-02-23T00:30:51.136Z,76.46
2019-02-23T00:31:52.057Z,76.53
2019-02-23T00:32:51.688Z,76.72
2019-02-23T00:33:50.957Z,76.52
2019-02-23T00:34:51.056Z,76.52
2019-02-23T00:35:50.729Z,76.74
2019-02-23T00:36:50.707Z,76.55
2019-02-23T00:37:52.440Z,76.69
2019-02-23T00:38:50.442Z,76.7
2019-02-23T00:39:50.428Z,76.7
2019-02-23T00:40:50.990Z,76.65
2019-02-23T00:41:50.596Z,76.71
2019-02-23T00:42:51.023Z,76.86
2019-02-23T00:43:51.128Z,76.87
2019-02-23T00:44:50.600Z,76.82
2019-02-23T00:45:50.737Z,76.8
2019-02-23T00:46:50.722Z,76.86
2019-02-23T00:47:51.039Z,76.99
2019-02-23T00:48:50.621Z,77.06
2019-02-23T00:49:50.619Z,76.92
2019-02-23T00:50:51.059Z,76.99
2019-02-23T00:51:51.832Z,76.88
2019-02-23T00:52:50.981Z,76.91
2019-02-23T00:53:51.606Z,76.84
2019-02-23T00:54:52.427Z,77.03
2019-02-23T00:55:50.988Z,76.99
2019-02-23T00:56:51.205Z,77.14
2019-02-23T00:57:51.005Z,77.15
2019-02-23T00:58:51.015Z,77.27
2019-02-23T00:59:51.223Z,77.47
2019-02-23T01:00:50.650Z,77.25
2019-02-23T01:01:50.844Z,77.31
2019-02-23T01:02:50.936Z,77.36
2019-02-23T01:03:51.455Z,77.44
2019-02-23T01:04:51.150Z,77.61
2019-02-23T01:05:50.958Z,77.46
2019-02-23T01:06:50.702Z,77.56
2019-02-23T01:07:50.590Z,77.47
2019-02-23T01:08:52.427Z,77.86
2019-02-23T01:09:50.897Z,77.66
2019-02-23T01:10:57.640Z,77.66
2019-02-23T01:11:50.636Z,77.65
2019-02-23T01:12:50.736Z,77.75
2019-02-23T01:13:50.915Z,77.72
2019-02-23T01:14:51.750Z,77.7
2019-02-23T01:15:52.393Z,77.52
2019-02-23T01:16:51.024Z,77.56
2019-02-23T01:17:52.398Z,77.4
2019-02-23T01:18:50.591Z,77.42
2019-02-23T01:19:50.944Z,77.22
2019-02-23T01:20:50.560Z,77.13
2019-02-23T01:21:51.160Z,77.07
2019-02-23T01:22:50.592Z,77.05
2019-02-23T01:23:50.670Z,77.04
2019-02-23T01:24:50.647Z,76.93
2019-02-23T01:25:51.083Z,76.85
2019-02-23T01:26:51.191Z,76.92
2019-02-23T01:27:50.559Z,76.87
2019-02-23T01:28:50.912Z,76.84
2019-02-23T01:29:50.856Z,76.95
2019-02-23T01:30:50.693Z,76.9
2019-02-23T01:31:52.375Z,76.68
2019-02-23T01:32:50.835Z,76.97
2019-02-23T01:33:50.527Z,76.92
2019-02-23T01:34:51.243Z,76.95
2019-02-23T01:35:50.943Z,77.15
2019-02-23T01:36:52.359Z,77.05
2019-02-23T01:37:50.523Z,77.06
2019-02-23T01:38:50.515Z,77.29
2019-02-23T01:39:50.849Z,77.13
2019-02-23T01:40:50.581Z,77.17
2019-02-23T01:41:51.188Z,77.2
2019-02-23T01:42:50.697Z,77.33
2019-02-23T01:43:52.049Z,77.17
2019-02-23T01:44:51.277Z,77.1
2019-02-23T01:45:50.867Z,77.16
2019-02-23T01:46:50.588Z,77.24
2019-02-23T01:47:50.794Z,77.1
2019-02-23T01:48:50.606Z,77.26
2019-02-23T01:49:58.468Z,77.27
2019-02-23T01:50:50.525Z,77.09
2019-02-23T01:51:50.653Z,77.26
2019-02-23T01:52:50.880Z,77.08
2019-02-23T01:53:50.862Z,77.14
2019-02-23T01:54:50.970Z,77.25
2019-02-23T01:55:50.666Z,77.05
2019-02-23T01:56:50.553Z,77.1
2019-02-23T01:57:51.490Z,76.97
2019-02-23T01:58:51.201Z,77.02
2019-02-23T01:59:50.565Z,76.86
2019-02-23T02:00:50.907Z,77.15
2019-02-23T02:01:50.611Z,76.96
2019-02-23T02:02:50.303Z,76.84
2019-02-23T02:03:50.719Z,77.07
2019-02-23T02:04:50.833Z,76.87
2019-02-23T02:05:51.041Z,76.86
2019-02-23T02:06:50.509Z,76.86
2019-02-23T02:07:50.510Z,76.91
2019-02-23T02:08:52.343Z,76.9
2019-02-23T02:09:51.065Z,77.21
2019-02-23T02:10:50.666Z,77.12
2019-02-23T02:11:51.391Z,76.95
2019-02-23T02:12:50.676Z,77.08
2019-02-23T02:13:50.585Z,76.89
2019-02-23T02:14:50.573Z,76.99
2019-02-23T02:15:52.227Z,76.98
2019-02-23T02:16:51.321Z,77
2019-02-23T02:17:50.693Z,76.96
2019-02-23T02:18:51.329Z,77.11
2019-02-23T02:19:52.305Z,77.01
2019-02-23T02:20:51.413Z,77.13
2019-02-23T02:21:51.434Z,76.94
2019-02-23T02:22:50.575Z,76.99
2019-02-23T02:23:50.658Z,77.09
2019-02-23T02:24:52.300Z,77.1
2019-02-23T02:25:50.765Z,77.08
2019-02-23T02:26:50.622Z,77.21
2019-02-23T02:27:50.877Z,77.43
2019-02-23T02:28:50.619Z,77.14
2019-02-23T02:29:50.429Z,77.22
2019-02-23T02:30:51.205Z,77.18
2019-02-23T02:31:50.907Z,77.2
2019-02-23T02:32:51.328Z,77.3
2019-02-23T02:33:50.609Z,77.31
2019-02-23T02:34:50.829Z,77.26
2019-02-23T02:35:50.526Z,77.25
2019-02-23T02:36:50.525Z,77.43
2019-02-23T02:37:51.071Z,77.46
2019-02-23T02:38:50.723Z,77.51
2019-02-23T02:39:50.633Z,77.33
2019-02-23T02:40:50.535Z,77.19
2019-02-23T02:41:51.779Z,77.36
2019-02-23T02:42:52.250Z,77.14
2019-02-23T02:43:50.446Z,77.06
2019-02-23T02:44:50.991Z,77.04
2019-02-23T02:45:50.704Z,77.17
2019-02-23T02:46:50.441Z,77.25
2019-02-23T02:47:50.924Z,77.44
2019-02-23T02:48:50.493Z,77.58
2019-02-23T02:49:50.565Z,77.79
2019-02-23T02:50:50.498Z,77.39
2019-02-23T02:51:50.832Z,77.6
2019-02-23T02:52:51.562Z,77.5
2019-02-23T02:53:50.554Z,77.7
2019-02-23T02:54:50.440Z,77.83
2019-02-23T02:55:50.493Z,77.9
2019-02-23T02:56:52.259Z,77.6
2019-02-23T02:57:51.601Z,77.79
2019-02-23T02:58:50.554Z,77.9
2019-02-23T02:59:50.785Z,78.07
2019-02-23T03:00:50.580Z,77.8
2019-02-23T03:01:50.693Z,77.74
2019-02-23T03:02:52.242Z,78.07
2019-02-23T03:03:51.288Z,78.22
2019-02-23T03:04:50.646Z,78.13
2019-02-23T03:05:52.251Z,78.11
2019-02-23T03:06:50.742Z,78.05
2019-02-23T03:07:50.607Z,77.92
2019-02-23T03:08:50.606Z,78.22
2019-02-23T03:09:50.452Z,78.14
2019-02-23T03:10:52.227Z,78.41
2019-02-23T03:11:52.240Z,78.7
2019-02-23T03:12:50.359Z,78.53
2019-02-23T03:13:50.451Z,78.44
2019-02-23T03:14:50.884Z,78.74
2019-02-23T03:15:50.565Z,78.81
2019-02-23T03:16:50.689Z,78.8
2019-02-23T03:17:50.699Z,78.92
2019-02-23T03:18:50.817Z,78.92
2019-02-23T03:19:50.609Z,78.85
2019-02-23T03:20:50.375Z,78.75
2019-02-23T03:21:52.485Z,79.21
2019-02-23T03:22:50.184Z,78.7
2019-02-23T03:23:50.203Z,78.78
2019-02-23T03:24:50.203Z,78.93
2019-02-23T03:25:51.164Z,78.76
2019-02-23T03:26:52.223Z,78.91
2019-02-23T03:27:50.451Z,79.04
2019-02-23T03:28:50.431Z,78.82
2019-02-23T03:29:50.506Z,78.92
2019-02-23T03:30:50.580Z,78.78
2019-02-23T03:31:50.591Z,78.75
2019-02-23T03:32:51.461Z,78.78
2019-02-23T03:33:50.380Z,78.81
2019-02-23T03:34:51.236Z,78.72
2019-02-23T03:35:50.816Z,78.89
2019-02-23T03:36:50.361Z,79.07
2019-02-23T03:37:50.371Z,79.03
2019-02-23T03:38:50.631Z,78.97
2019-02-23T03:39:50.332Z,78.92
2019-02-23T03:40:50.386Z,79.16
2019-02-23T03:41:50.504Z,78.98
2019-02-23T03:42:50.527Z,79.08
2019-02-23T03:43:50.350Z,79.15
2019-02-23T03:44:50.338Z,79.12
2019-02-23T03:45:50.886Z,79.12
2019-02-23T03:46:51.395Z,79.11
2019-02-23T03:47:50.388Z,79.18
2019-02-23T03:48:50.493Z,79.16
2019-02-23T03:49:50.297Z,79.27
2019-02-23T03:50:50.389Z,79.09
2019-02-23T03:51:50.415Z,79.04
2019-02-23T03:52:52.173Z,79.14
2019-02-23T03:53:50.627Z,79.03
2019-02-23T03:54:50.411Z,79.33
2019-02-23T03:55:51.554Z,79.13
2019-02-23T03:56:50.539Z,79.21
2019-02-23T03:57:50.396Z,79.01
2019-02-23T03:58:52.168Z,79.1
2019-02-23T03:59:50.976Z,79.06
2019-02-23T04:00:50.411Z,79.1
2019-02-23T04:01:50.325Z,79.17
2019-02-23T04:02:50.988Z,79.2
2019-02-23T04:03:50.329Z,79.17
2019-02-23T04:04:50.429Z,79.38
2019-02-23T04:05:50.707Z,79.24
2019-02-23T04:06:50.527Z,79.16
2019-02-23T04:07:51.136Z,79.26
2019-02-23T04:08:52.151Z,79.15
2019-02-23T04:09:50.531Z,79.08
2019-02-23T04:10:50.440Z,79.23
2019-02-23T04:11:50.658Z,79.23
2019-02-23T04:12:50.121Z,79.09
2019-02-23T04:13:50.661Z,79.22
2019-02-23T04:14:50.391Z,79.33
2019-02-23T04:15:50.418Z,79.17
2019-02-23T04:16:51.266Z,79.33
2019-02-23T04:17:50.581Z,79.11
2019-02-23T04:18:51.003Z,79.19
2019-02-23T04:19:50.293Z,79.24
2019-02-23T04:21:01.119Z,79.11
2019-02-23T04:21:50.285Z,78.89
2019-02-23T04:22:50.506Z,78.95
2019-02-23T04:23:50.258Z,78.83
2019-02-23T04:24:50.744Z,78.84
2019-02-23T04:25:50.287Z,78.93
2019-02-23T04:26:50.646Z,78.9
2019-02-23T04:27:50.647Z,79.23
2019-02-23T04:28:51.479Z,79.16
2019-02-23T04:29:50.766Z,79.14
2019-02-23T04:30:50.376Z,79.11
2019-02-23T04:31:50.376Z,79.25
2019-02-23T04:32:50.583Z,79.54
2019-02-23T04:33:50.392Z,79.74
2019-02-23T04:34:50.688Z,79.84
2019-02-23T04:35:50.412Z,79.55
2019-02-23T04:36:50.294Z,79.62
2019-02-23T04:37:50.725Z,79.79
2019-02-23T04:38:51.249Z,79.8
2019-02-23T04:39:50.390Z,79.61
2019-02-23T04:40:50.236Z,79.78
2019-02-23T04:41:50.751Z,79.73
2019-02-23T04:42:50.273Z,79.72
2019-02-23T04:43:50.287Z,79.89
2019-02-23T04:44:50.663Z,79.86
2019-02-23T04:45:51.278Z,80.07
2019-02-23T04:46:50.578Z,79.92
2019-02-23T04:47:50.589Z,80.06
2019-02-23T04:48:50.790Z,80.13
2019-02-23T04:49:50.300Z,80.1
2019-02-23T04:50:50.704Z,80.05
2019-02-23T04:51:50.809Z,79.93
2019-02-23T04:52:50.616Z,80.29
2019-02-23T04:53:50.454Z,79.95
2019-02-23T04:54:50.336Z,80.03
2019-02-23T04:55:50.308Z,79.91
2019-02-23T04:56:50.272Z,79.87
2019-02-23T04:57:50.355Z,80.15
2019-02-23T04:58:50.549Z,80
2019-02-23T04:59:50.332Z,79.63
2019-02-23T05:00:50.666Z,79.92
2019-02-23T05:01:50.260Z,79.78
2019-02-23T05:02:50.223Z,79.86
2019-02-23T05:03:50.390Z,79.99
2019-02-23T05:04:50.689Z,79.95
2019-02-23T05:05:50.697Z,79.9
2019-02-23T05:06:50.604Z,80.09
2019-02-23T05:07:50.253Z,79.89
2019-02-23T05:08:50.185Z,79.88
2019-02-23T05:09:50.517Z,80.12
2019-02-23T05:10:50.379Z,80.07
2019-02-23T05:11:51.572Z,80.47
2019-02-23T05:12:51.261Z,80.33
2019-02-23T05:13:50.441Z,80.03
2019-02-23T05:14:50.263Z,80.21
2019-02-23T05:15:50.976Z,80.31
2019-02-23T05:16:50.383Z,80.29
2019-02-23T05:17:50.575Z,80.01
2019-02-23T05:18:50.294Z,79.97
2019-02-23T05:19:50.790Z,80.14
2019-02-23T05:20:50.267Z,80.13
2019-02-23T05:21:50.495Z,80.3
2019-02-23T05:22:50.609Z,80.31
2019-02-23T05:23:50.405Z,80.3
2019-02-23T05:24:53.194Z,80.29
2019-02-23T05:25:50.385Z,80.13
2019-02-23T05:26:50.250Z,80.25
2019-02-23T05:27:50.287Z,80.42
2019-02-23T05:28:50.645Z,80.34
2019-02-23T05:29:50.522Z,80.57
2019-02-23T05:30:50.341Z,80.59
2019-02-23T05:31:50.667Z,80.41
2019-02-23T05:32:50.671Z,80.67
2019-02-23T05:33:52.028Z,80.57
2019-02-23T05:34:52.031Z,80.61
2019-02-23T05:35:50.351Z,80.72
2019-02-23T05:36:50.216Z,80.53
2019-02-23T05:37:50.933Z,80.5
2019-02-23T05:38:50.607Z,80.31
2019-02-23T05:39:50.633Z,80.67
2019-02-23T05:40:50.312Z,80.34
2019-02-23T05:41:50.279Z,80.17
2019-02-23T05:43:00.286Z,80.35
2019-02-23T05:43:50.350Z,80.55
2019-02-23T05:44:50.292Z,80.53
2019-02-23T05:45:50.549Z,80.71
2019-02-23T05:46:50.763Z,80.3
2019-02-23T05:47:50.307Z,80.65
2019-02-23T05:48:50.272Z,80.67
2019-02-23T05:49:50.780Z,80.6
2019-02-23T05:50:50.670Z,80.92
2019-02-23T05:51:50.282Z,80.96
2019-02-23T05:52:50.612Z,80.89
2019-02-23T05:53:50.706Z,80.89
2019-02-23T05:54:50.829Z,81.04
2019-02-23T05:55:51.632Z,81.3
2019-02-23T05:56:51.988Z,81.38
2019-02-23T05:57:50.530Z,81.16
2019-02-23T05:58:50.554Z,81.52
2019-02-23T05:59:50.433Z,81.61
2019-02-23T06:00:50.650Z,81.34
2019-02-23T06:01:51.172Z,81.54
2019-02-23T06:02:50.464Z,81.51
2019-02-23T06:03:50.328Z,81.58
2019-02-23T06:04:50.117Z,81.34
2019-02-23T06:05:50.275Z,81.46
2019-02-23T06:06:50.241Z,81.4
2019-02-23T06:07:51.003Z,81.23
2019-02-23T06:08:50.106Z,81.49
2019-02-23T06:09:49.948Z,81.66
2019-02-23T06:10:50.211Z,81.4
2019-02-23T06:11:50.146Z,81.29
2019-02-23T06:12:51.092Z,81.76
2019-02-23T06:13:50.183Z,81.56
2019-02-23T06:14:50.437Z,81.62
2019-02-23T06:15:50.851Z,81.41
2019-02-23T06:16:50.661Z,81.25
2019-02-23T06:17:50.076Z,81.56
2019-02-23T06:18:50.466Z,81.67
2019-02-23T06:19:50.319Z,81.49
2019-02-23T06:20:50.256Z,81.58
2019-02-23T06:21:53.936Z,81.48
2019-02-23T06:22:50.278Z,81.72
2019-02-23T06:23:49.928Z,81.61
2019-02-23T06:24:49.921Z,81.85
2019-02-23T06:25:49.949Z,81.66
2019-02-23T06:26:49.933Z,81.82
2019-02-23T06:27:49.935Z,82.14
2019-02-23T06:28:49.911Z,82.02
2019-02-23T06:29:50.077Z,82.13
2019-02-23T06:30:50.558Z,81.92
2019-02-23T06:31:50.242Z,82.12
2019-02-23T06:32:50.064Z,82.33
2019-02-23T06:33:50.210Z,82.22
2019-02-23T06:34:50.210Z,81.97
2019-02-23T06:35:50.358Z,82.14
2019-02-23T06:36:50.234Z,82.13
2019-02-23T06:37:53.308Z,82.3
2019-02-23T06:38:50.824Z,82.31
2019-02-23T06:39:50.145Z,82.22
2019-02-23T06:40:50.407Z,82
2019-02-23T06:41:50.188Z,82.03
2019-02-23T06:42:50.623Z,81.85
2019-02-23T06:43:50.324Z,81.96
2019-02-23T06:44:50.246Z,81.76
2019-02-23T06:45:50.948Z,81.81
2019-02-23T06:46:50.208Z,81.73
2019-02-23T06:47:50.065Z,81.72
2019-02-23T06:48:50.219Z,81.56
2019-02-23T06:49:50.079Z,81.46
2019-02-23T06:50:50.472Z,81.36
2019-02-23T06:51:50.480Z,81.48
2019-02-23T06:52:49.876Z,81.54
2019-02-23T06:53:51.262Z,81.45
2019-02-23T06:54:50.919Z,81.51
2019-02-23T06:55:50.024Z,81.57
2019-02-23T06:56:50.266Z,81.47
2019-02-23T06:57:50.957Z,81.36
2019-02-23T06:58:50.218Z,81.49
2019-02-23T06:59:50.841Z,81.41
2019-02-23T07:00:50.035Z,81.37
2019-02-23T07:01:50.237Z,81.33
2019-02-23T07:02:50.121Z,81.22
2019-02-23T07:03:50.250Z,81.07
2019-02-23T07:04:50.021Z,81.19
2019-02-23T07:05:50.172Z,80.97
2019-02-23T07:06:50.138Z,80.94
2019-02-23T07:07:50.378Z,80.99
2019-02-23T07:08:50.058Z,80.88
2019-02-23T07:09:50.211Z,81.18
2019-02-23T07:10:50.408Z,81.04
2019-02-23T07:11:50.097Z,81.04
2019-02-23T07:12:50.513Z,81.01
2019-02-23T07:13:50.624Z,80.94
2019-02-23T07:14:50.061Z,80.82
2019-02-23T07:15:50.071Z,80.75
2019-02-23T07:16:50.336Z,80.72
2019-02-23T07:17:50.893Z,80.73
2019-02-23T07:18:50.655Z,80.56
2019-02-23T07:19:50.334Z,80.33
2019-02-23T07:20:50.367Z,80.24
2019-02-23T07:21:50.572Z,80.08
2019-02-23T07:22:50.275Z,80
2019-02-23T07:23:50.056Z,79.99
2019-02-23T07:24:50.028Z,80.08
2019-02-23T07:25:50.040Z,79.93
2019-02-23T07:26:50.432Z,79.89
2019-02-23T07:27:50.745Z,79.74
2019-02-23T07:28:50.311Z,79.78
2019-02-23T07:29:49.991Z,79.86
2019-02-23T07:30:50.227Z,79.7
2019-02-23T07:31:50.337Z,79.56
2019-02-23T07:32:50.460Z,79.37
2019-02-23T07:33:50.502Z,79.37
2019-02-23T07:34:50.443Z,79.37
2019-02-23T07:35:50.048Z,79.4
2019-02-23T07:36:51.834Z,79.35
2019-02-23T07:37:50.035Z,78.93
2019-02-23T07:38:51.203Z,79.05
2019-02-23T07:39:50.385Z,78.9
2019-02-23T07:40:50.294Z,78.87
2019-02-23T07:41:50.124Z,78.87
2019-02-23T07:42:51.015Z,78.81
2019-02-23T07:43:50.880Z,78.5
2019-02-23T07:44:50.161Z,78.66
2019-02-23T07:45:50.861Z,78.37
2019-02-23T07:46:50.434Z,78.31
2019-02-23T07:47:49.965Z,77.98
2019-02-23T07:48:50.292Z,78.05
2019-02-23T07:49:50.046Z,78.04
2019-02-23T07:50:52.438Z,77.94
2019-02-23T07:51:50.978Z,77.85
2019-02-23T07:52:50.267Z,77.85
2019-02-23T07:53:50.058Z,78.1
2019-02-23T07:54:50.203Z,77.57
2019-02-23T07:55:50.287Z,77.58
2019-02-23T07:56:50.193Z,77.5
2019-02-23T07:57:51.797Z,77.66
2019-02-23T07:58:49.968Z,77.57
2019-02-23T07:59:50.435Z,77.21
2019-02-23T08:00:50.431Z,77.28
2019-02-23T08:01:50.032Z,77.02
2019-02-23T08:02:50.308Z,76.92
2019-02-23T08:03:50.652Z,76.97
2019-02-23T08:04:52.128Z,76.79
2019-02-23T08:05:50.456Z,76.52
2019-02-23T08:06:49.950Z,76.26
2019-02-23T08:07:50.473Z,76.37
2019-02-23T08:08:50.017Z,76.43
2019-02-23T08:09:50.178Z,76.2
2019-02-23T08:10:50.412Z,76.41
2019-02-23T08:11:51.779Z,76.34
2019-02-23T08:12:51.795Z,76.05
2019-02-23T08:13:49.965Z,76.13
2019-02-23T08:14:50.100Z,75.84
2019-02-23T08:15:50.013Z,75.57
2019-02-23T08:16:50.253Z,75.57
2019-02-23T08:17:50.075Z,75.56
2019-02-23T08:18:49.985Z,75.43
2019-02-23T08:19:50.142Z,75.48
2019-02-23T08:20:50.293Z,74.99
2019-02-23T08:21:50.772Z,75.05
2019-02-23T08:22:50.959Z,75.03
2019-02-23T08:23:50.376Z,74.98
2019-02-23T08:24:50.279Z,74.76
2019-02-23T08:25:50.608Z,74.73
2019-02-23T08:26:51.208Z,74.48
2019-02-23T08:27:50.298Z,74.54
2019-02-23T08:28:50.202Z,74.41
2019-02-23T08:29:50.094Z,74.24
2019-02-23T08:30:50.027Z,74.31
2019-02-23T08:31:50.011Z,74.22
2019-02-23T08:32:50.436Z,74.33
2019-02-23T08:33:50.235Z,73.49
2019-02-23T08:34:50.037Z,73.52
2019-02-23T08:35:49.730Z,73.7
2019-02-23T08:36:50.363Z,73.66
2019-02-23T08:37:50.578Z,73.39
2019-02-23T08:38:50.075Z,73.24
2019-02-23T08:39:49.961Z,73.15
2019-02-23T08:40:49.939Z,72.76
2019-02-23T08:41:49.980Z,72.86
2019-02-23T08:42:50.511Z,72.41
2019-02-23T08:43:51.742Z,72.26
2019-02-23T08:44:49.979Z,72.59
2019-02-23T08:45:50.048Z,72.64
2019-02-23T08:46:49.996Z,72.28
2019-02-23T08:47:50.335Z,72.24
2019-02-23T08:48:50.332Z,71.82
2019-02-23T08:49:50.035Z,71.7
2019-02-23T08:50:50.249Z,71.74
2019-02-23T08:51:49.998Z,71.74
2019-02-23T08:52:50.506Z,71.96
2019-02-23T08:53:49.896Z,72.02
2019-02-23T08:54:50.373Z,71.68
2019-02-23T08:55:50.030Z,71.72
2019-02-23T08:56:49.944Z,71.9
2019-02-23T08:57:50.191Z,72.08
2019-02-23T08:58:49.998Z,71.91
2019-02-23T08:59:49.969Z,71.38
2019-02-23T09:00:49.999Z,71.32
2019-02-23T09:01:49.866Z,71.47
2019-02-23T09:02:50.022Z,71.52
2019-02-23T09:03:49.947Z,70.97
2019-02-23T09:04:50.018Z,70.94
2019-02-23T09:05:51.711Z,71.28
2019-02-23T09:06:49.973Z,71.18
2019-02-23T09:07:50.276Z,71.1
2019-02-23T09:08:50.572Z,70.8
2019-02-23T09:09:51.590Z,70.85
2019-02-23T09:10:50.031Z,70.61
2019-02-23T09:11:50.027Z,70.85
2019-02-23T09:12:50.021Z,70.89
2019-02-23T09:13:49.968Z,70.33
2019-02-23T09:14:50.424Z,70.91
2019-02-23T09:15:50.410Z,70.68
2019-02-23T09:16:50.521Z,70.54
2019-02-23T09:17:50.014Z,70.02
2019-02-23T09:18:50.126Z,69.42
2019-02-23T09:19:49.832Z,69.54
2019-02-23T09:20:51.793Z,69.26
2019-02-23T09:21:51.686Z,69.53
2019-02-23T09:22:59.678Z,69.51
2019-02-23T09:23:50.261Z,69.55
2019-02-23T09:24:50.081Z,69.65
2019-02-23T09:25:49.959Z,68.82
2019-02-23T09:26:49.919Z,68.78
2019-02-23T09:27:49.930Z,68.08
2019-02-23T09:28:49.948Z,67.95
2019-02-23T09:29:49.947Z,67.75
2019-02-23T09:30:50.624Z,68.17
2019-02-23T09:31:50.108Z,68.28
2019-02-23T09:32:49.951Z,68.32
2019-02-23T09:33:50.434Z,68.35
2019-02-23T09:34:50.233Z,68.25
2019-02-23T09:35:50.032Z,68.14
2019-02-23T09:36:49.913Z,67.76
2019-02-23T09:37:49.964Z,67.95
2019-02-23T09:38:49.955Z,67.88
2019-02-23T09:39:49.895Z,67.69
2019-02-23T09:40:49.825Z,67.36
2019-02-23T09:41:49.918Z,67.47
2019-02-23T09:42:50.079Z,67.36
2019-02-23T09:43:49.795Z,67.23
2019-02-23T09:44:49.991Z,67.41
2019-02-23T09:45:50.119Z,67.57
2019-02-23T09:46:49.922Z,67.48
2019-02-23T09:47:50.319Z,67.44
2019-02-23T09:48:50.017Z,66.89
2019-02-23T09:49:50.345Z,66.55
2019-02-23T09:50:51.699Z,66.19
2019-02-23T09:51:51.654Z,66.87
2019-02-23T09:52:50.555Z,66.82
2019-02-23T09:53:49.790Z,66.86
2019-02-23T09:54:49.895Z,66.04
2019-02-23T09:55:49.948Z,66.64
2019-02-23T09:56:51.641Z,66.31
2019-02-23T09:57:50.350Z,66.3
2019-02-23T09:58:49.983Z,65.98
2019-02-23T09:59:49.917Z,65.84
2019-02-23T10:00:50.107Z,65.75
2019-02-23T10:01:50.006Z,65.07
2019-02-23T10:02:49.920Z,65.55
2019-02-23T10:03:50.327Z,65.06
2019-02-23T10:04:49.917Z,64.8
2019-02-23T10:05:49.902Z,64.41
2019-02-23T10:06:50.558Z,64.51
2019-02-23T10:07:49.879Z,65.11
2019-02-23T10:08:49.793Z,64.81
2019-02-23T10:09:49.756Z,64.41
2019-02-23T10:10:49.776Z,63.92
2019-02-23T10:11:50.271Z,63.38
2019-02-23T10:12:50.211Z,63.11
2019-02-23T10:13:51.608Z,63.55
2019-02-23T10:14:50.089Z,63.23
2019-02-23T10:15:49.941Z,63.07
2019-02-23T10:16:50.385Z,63.07
2019-02-23T10:17:50.018Z,63.11
2019-02-23T10:18:49.841Z,62.85
2019-02-23T10:19:50.129Z,62.52
2019-02-23T10:20:49.846Z,62.42
2019-02-23T10:21:50.044Z,62.43
2019-02-23T10:22:50.140Z,62.71
2019-02-23T10:23:50.253Z,62.43
2019-02-23T10:24:50.062Z,61.96
2019-02-23T10:25:49.734Z,62.17
2019-02-23T10:26:50.705Z,62.11
2019-02-23T10:27:49.968Z,61.78
2019-02-23T10:28:49.724Z,61.45
2019-02-23T10:29:49.794Z,61.74
2019-02-23T10:30:49.855Z,61.82
2019-02-23T10:31:49.766Z,61.12
2019-02-23T10:32:49.900Z,61.58
2019-02-23T10:33:49.716Z,60.79
2019-02-23T10:34:49.915Z,60.75
2019-02-23T10:35:50.024Z,61.34
2019-02-23T10:36:51.577Z,60.91
2019-02-23T10:37:49.935Z,60.92
2019-02-23T10:38:50.043Z,60.35
2019-02-23T10:39:51.579Z,60.71
2019-02-23T10:40:51.592Z,60.02
2019-02-23T10:41:50.171Z,60.52
2019-02-23T10:42:49.761Z,60.08
2019-02-23T10:43:49.977Z,60.13
2019-02-23T10:44:50.494Z,59.68
2019-02-23T10:45:49.862Z,59.88
2019-02-23T10:46:49.840Z,59.97
2019-02-23T10:47:50.392Z,60.06
2019-02-23T10:48:49.726Z,59.32
2019-02-23T10:49:49.696Z,59.73
2019-02-23T10:50:50.020Z,59.02
2019-02-23T10:51:49.763Z,57.45
2019-02-23T10:52:50.576Z,57.42
2019-02-23T10:53:50.043Z,58.04
2019-02-23T10:54:50.155Z,57.41
2019-02-23T10:55:50.695Z,56.93
2019-02-23T10:56:51.082Z,56.99
2019-02-23T10:57:50.273Z,56.89
2019-02-23T10:58:50.582Z,58.07
2019-02-23T10:59:49.855Z,57.36
2019-02-23T11:00:50.199Z,57.93
2019-02-23T11:01:51.583Z,57.65
2019-02-23T11:02:51.031Z,57.7
2019-02-23T11:03:49.850Z,57.54
2019-02-23T11:04:49.878Z,58.22
2019-02-23T11:05:50.021Z,57.02
2019-02-23T11:06:49.922Z,56.94
2019-02-23T11:07:49.694Z,57.47
2019-02-23T11:08:49.678Z,58.09
2019-02-23T11:09:49.666Z,57.28
2019-02-23T11:10:51.527Z,57.59
2019-02-23T11:11:49.508Z,57.28
2019-02-23T11:12:49.495Z,56.45
2019-02-23T11:13:49.660Z,55.12
2019-02-23T11:14:49.698Z,55.45
2019-02-23T11:15:49.988Z,54.6
2019-02-23T11:16:51.557Z,54.75
2019-02-23T11:17:49.999Z,54.09
2019-02-23T11:18:50.588Z,54.17
2019-02-23T11:19:49.908Z,55.06
2019-02-23T11:20:49.488Z,54.39
2019-02-23T11:21:50.229Z,53.08
2019-02-23T11:22:50.451Z,53.38
2019-02-23T11:23:49.709Z,52.48
2019-02-23T11:24:49.680Z,52.29
2019-02-23T11:25:50.460Z,52.03
2019-02-23T11:26:49.694Z,52.01
2019-02-23T11:27:49.635Z,52.2
2019-02-23T11:28:50.085Z,52.77
2019-02-23T11:29:49.664Z,52.86
2019-02-23T11:30:49.980Z,51.71
2019-02-23T11:31:51.497Z,51.98
2019-02-23T11:32:50.531Z,52.51
2019-02-23T11:33:50.105Z,51.58
2019-02-23T11:34:50.141Z,50.4
2019-02-23T11:35:49.958Z,50.32
2019-02-23T11:36:49.644Z,50.74
2019-02-23T11:37:50.131Z,49.85
2019-02-23T11:38:50.015Z,49.23
2019-02-23T11:39:51.063Z,49.39
2019-02-23T11:40:50.256Z,48.3
2019-02-23T11:41:49.729Z,48.42
2019-02-23T11:42:49.962Z,47.36
2019-02-23T11:43:50.378Z,44.67
2019-02-23T11:44:49.669Z,47.32
2019-02-23T11:45:50.288Z,47.03
2019-02-23T11:46:59.726Z,46.42
2019-02-23T11:47:49.629Z,45.05
2019-02-23T11:48:50.441Z,45.53
2019-02-23T11:49:50.007Z,45.19
2019-02-23T11:50:49.621Z,45.61
2019-02-23T11:51:50.471Z,44.25
2019-02-23T11:52:50.037Z,45.31
2019-02-23T11:53:54.799Z,44.23
2019-02-23T11:54:50.042Z,44.46
2019-02-23T11:55:49.594Z,43.57
2019-02-23T11:56:49.718Z,43.31
2019-02-23T11:57:49.956Z,43.07
2019-02-23T11:58:49.980Z,43.44
2019-02-23T11:59:49.693Z,44.85
2019-02-23T12:00:49.681Z,44
2019-02-23T12:01:50.464Z,44.63
2019-02-23T12:02:52.661Z,44.33
2019-02-23T12:03:49.642Z,44.15
2019-02-23T12:04:50.108Z,44.04
2019-02-23T12:05:50.019Z,44.8
2019-02-23T12:06:49.656Z,42.69
2019-02-23T12:07:49.823Z,42.54
2019-02-23T12:08:49.655Z,42.48
2019-02-23T12:09:49.659Z,41.34
2019-02-23T12:10:49.603Z,40.97
2019-02-23T12:11:49.600Z,41.27
2019-02-23T12:12:49.850Z,40.68
2019-02-23T12:13:49.706Z,41.81
2019-02-23T12:14:50.123Z,41.88
2019-02-23T12:15:49.590Z,40.28
2019-02-23T12:16:49.602Z,40.1
2019-02-23T12:17:50.208Z,40.27
2019-02-23T12:18:49.897Z,40.45
2019-02-23T12:19:51.434Z,40.96
2019-02-23T12:20:50.010Z,41.58
2019-02-23T12:21:49.708Z,42.03
2019-02-23T12:22:50.328Z,40.79
2019-02-23T12:23:51.428Z,40.42
2019-02-23T12:24:49.737Z,41.43
2019-02-23T12:25:50.967Z,40.34
2019-02-23T12:26:49.701Z,40.52
2019-02-23T12:27:49.699Z,39.78
2019-02-23T12:28:49.623Z,38.56
2019-02-23T12:29:49.635Z,37.74
2019-02-23T12:30:49.653Z,37.13
2019-02-23T12:31:49.650Z,36.46
2019-02-23T12:32:49.535Z,37.39
2019-02-23T12:33:49.576Z,37.32
2019-02-23T12:34:49.711Z,36.3
2019-02-23T12:35:49.535Z,37.13
2019-02-23T12:36:49.560Z,37.87
2019-02-23T12:37:49.594Z,37.77
2019-02-23T12:38:50.032Z,38.4
2019-02-23T12:39:49.600Z,39.73
2019-02-23T12:40:49.613Z,38.41
2019-02-23T12:41:50.066Z,39.08
2019-02-23T12:42:50.262Z,38.82
2019-02-23T12:43:50.065Z,38.94
2019-02-23T12:44:51.072Z,38.58
2019-02-23T12:45:49.976Z,38.97
2019-02-23T12:46:49.706Z,39.21
2019-02-23T12:47:51.247Z,38.22
2019-02-23T12:48:49.894Z,37.59
2019-02-23T12:49:49.695Z,35.98
2019-02-23T12:50:49.634Z,35.8
2019-02-23T12:51:49.694Z,34.25
2019-02-23T12:52:49.568Z,36.02
2019-02-23T12:53:51.383Z,35.71
2019-02-23T12:54:50.412Z,35.32
2019-02-23T12:55:50.122Z,37.51